Time;durP1;ratioP1;P1;durP2;ratioP2;P2;SDS_P1;SDS_P2;PMS_P1;PMS_P2;Temp;Humidity;BMP_temperature;BMP_pressure;BME280_temperature;BME280_humidity;BME280_pressure;Samples;Min_cycle;Max_cycle;Signal;HPM_P1;HPM_P2
2021/09/13 00:00:24;;;;;;;3.20;1.10;;;;;;;;;;5066723;28;20043;-59
2021/09/13 00:02:51;;;;;;;1.80;1.00;;;;;;;;;;5067148;28;20383;-59
2021/09/13 00:05:18;;;;;;;1.43;0.83;;;;;;;;;;5071014;28;20056;-58
2021/09/13 00:07:45;;;;;;;0.97;0.60;;;;;;;;;;5072186;28;20028;-58
2021/09/13 00:10:12;;;;;;;1.50;0.90;;;;;;;;;;5072156;28;20025;-58
2021/09/13 00:12:39;;;;;;;1.67;0.93;;;;;;;;;;5071992;28;20025;-58
2021/09/13 00:15:06;;;;;;;1.27;0.70;;;;;;;;;;5072038;28;20024;-59
2021/09/13 00:17:33;;;;;;;2.10;0.80;;;;;;;;;;5067739;28;20028;-58
2021/09/13 00:20:00;;;;;;;2.80;1.10;;;;;;;;;;5066860;28;20040;-59
2021/09/13 00:22:27;;;;;;;1.47;0.93;;;;;;;;;;5067039;28;20032;-58
2021/09/13 00:24:54;;;;;;;2.87;1.00;;;;;;;;;;5066687;28;20423;-58
2021/09/13 00:27:20;;;;;;;2.73;1.10;;;;;;;;;;5070431;28;20025;-60
2021/09/13 00:29:47;;;;;;;2.57;0.90;;;;;;;;;;5072214;28;20032;-58
2021/09/13 00:32:14;;;;;;;1.63;0.93;;;;;;;;;;5071885;28;20024;-58
2021/09/13 00:34:41;;;;;;;6.93;1.20;;;;;;;;;;5072144;28;20478;-58
2021/09/13 00:37:07;;;;;;;2.77;1.00;;;;;;;;;;5071305;28;20025;-58
2021/09/13 00:39:34;;;;;;;1.37;0.77;;;;;;;;;;5067942;28;20023;-58
2021/09/13 00:42:02;;;;;;;1.40;1.00;;;;;;;;;;5066814;28;20020;-58
2021/09/13 00:44:29;;;;;;;1.53;0.80;;;;;;;;;;5066705;28;20029;-58
2021/09/13 00:46:56;;;;;;;1.03;0.80;;;;;;;;;;5066815;28;20025;-58
2021/09/13 00:49:23;;;;;;;1.53;0.83;;;;;;;;;;5069327;28;20047;-58
2021/09/13 00:51:50;;;;;;;1.93;0.73;;;;;;;;;;5071842;28;20383;-58
2021/09/13 00:54:17;;;;;;;3.00;0.93;;;;;;;;;;5071594;28;20059;-58
2021/09/13 00:56:44;;;;;;;1.43;0.80;;;;;;;;;;5072141;28;20024;-58
2021/09/13 00:59:12;;;;;;;1.90;0.90;;;;;;;;;;5071829;28;20032;-58
2021/09/13 01:01:39;;;;;;;2.63;0.90;;;;;;;;;;5067970;28;20388;-58
2021/09/13 01:04:06;;;;;;;2.83;1.13;;;;;;;;;;5066530;28;20074;-58
2021/09/13 01:06:32;;;;;;;2.17;1.20;;;;;;;;;;5067178;28;20368;-58
2021/09/13 01:08:59;;;;;;;1.97;1.23;;;;;;;;;;5069859;28;20044;-58
2021/09/13 01:11:26;;;;;;;5.63;1.50;;;;;;;;;;5073224;28;20103;-58
2021/09/13 01:13:53;;;;;;;5.87;1.60;;;;;;;;;;5075146;28;20029;-58
2021/09/13 01:16:20;;;;;;;2.80;1.40;;;;;;;;;;5075476;28;20027;-58
2021/09/13 01:18:47;;;;;;;2.83;1.50;;;;;;;;;;5075667;28;20059;-58
2021/09/13 01:21:13;;;;;;;1.97;1.20;;;;;;;;;;5075238;28;20483;-58
2021/09/13 01:23:40;;;;;;;2.40;1.37;;;;;;;;;;5071973;28;20017;-58
2021/09/13 01:26:07;;;;;;;3.37;1.30;;;;;;;;;;5069391;28;20519;-58
2021/09/13 01:28:34;;;;;;;2.00;1.50;;;;;;;;;;5070053;28;20375;-58
2021/09/13 01:31:01;;;;;;;1.93;1.20;;;;;;;;;;5070083;28;20032;-59
2021/09/13 01:33:28;;;;;;;3.20;1.53;;;;;;;;;;5072262;28;20380;-58
2021/09/13 01:35:55;;;;;;;2.57;1.27;;;;;;;;;;5074993;28;20036;-58
2021/09/13 01:38:23;;;;;;;3.13;0.80;;;;;;;;;;5074698;28;20405;-58
2021/09/13 01:40:50;;;;;;;1.80;1.00;;;;;;;;;;5074458;28;20032;-58
2021/09/13 01:43:18;;;;;;;2.97;1.00;;;;;;;;;;5074966;28;20028;-58
2021/09/13 01:45:44;;;;;;;2.33;1.07;;;;;;;;;;5071714;28;20024;-58
2021/09/13 01:48:11;;;;;;;1.93;1.10;;;;;;;;;;5069479;28;20036;-59
2021/09/13 01:50:39;;;;;;;4.57;1.00;;;;;;;;;;5069457;28;20039;-58
2021/09/13 01:53:06;;;;;;;2.47;1.10;;;;;;;;;;5069651;28;20051;-58
2021/09/13 01:55:33;;;;;;;2.63;1.00;;;;;;;;;;5071892;28;20082;-58
2021/09/13 01:57:59;;;;;;;2.57;1.07;;;;;;;;;;5074308;28;20021;-58
2021/09/13 02:00:26;;;;;;;4.23;1.27;;;;;;;;;;5074539;28;20075;-59
2021/09/13 02:02:53;;;;;;;1.83;0.90;;;;;;;;;;5071552;28;20028;-58
2021/09/13 02:05:20;;;;;;;1.50;1.03;;;;;;;;;;5074617;28;20028;-59
2021/09/13 02:07:46;;;;;;;2.87;1.30;;;;;;;;;;5071690;28;20031;-58
2021/09/13 02:10:13;;;;;;;1.97;1.10;;;;;;;;;;5069205;28;20032;-59
2021/09/13 02:12:40;;;;;;;2.50;1.10;;;;;;;;;;5068465;28;20024;-59
2021/09/13 02:15:07;;;;;;;2.57;1.07;;;;;;;;;;5069020;28;20079;-58
2021/09/13 02:17:34;;;;;;;5.13;1.43;;;;;;;;;;5070572;28;20414;-58
2021/09/13 02:20:01;;;;;;;4.63;1.80;;;;;;;;;;5074338;28;20433;-58
2021/09/13 02:22:27;;;;;;;2.50;1.20;;;;;;;;;;5074080;28;20479;-58
2021/09/13 02:24:54;;;;;;;2.20;1.30;;;;;;;;;;5073556;28;20013;-58
2021/09/13 02:27:21;;;;;;;1.40;0.90;;;;;;;;;;5074133;28;20131;-58
2021/09/13 02:29:48;;;;;;;5.30;1.20;;;;;;;;;;5071127;28;20119;-58
2021/09/13 02:32:15;;;;;;;4.60;1.23;;;;;;;;;;5068689;28;20028;-58
2021/09/13 02:34:41;;;;;;;11.23;1.83;;;;;;;;;;5068762;28;20107;-58
2021/09/13 02:37:08;;;;;;;4.77;1.30;;;;;;;;;;5068404;28;20067;-58
2021/09/13 02:39:35;;;;;;;7.30;1.70;;;;;;;;;;5070081;28;20047;-58
2021/09/13 02:42:02;;;;;;;4.13;1.40;;;;;;;;;;5073875;28;20455;-58
2021/09/13 02:44:28;;;;;;;3.97;1.40;;;;;;;;;;5073348;28;20037;-58
2021/09/13 02:46:56;;;;;;;1.97;1.30;;;;;;;;;;5073486;28;20097;-58
2021/09/13 02:49:23;;;;;;;3.80;1.43;;;;;;;;;;5073048;28;20048;-58
2021/09/13 02:51:50;;;;;;;1.97;1.20;;;;;;;;;;5071597;28;20024;-58
2021/09/13 02:54:16;;;;;;;3.00;1.50;;;;;;;;;;5068403;28;20510;-58
2021/09/13 02:56:43;;;;;;;8.10;1.63;;;;;;;;;;5068318;28;20510;-58
2021/09/13 02:59:10;;;;;;;4.57;2.20;;;;;;;;;;5068205;28;20021;-58
2021/09/13 03:01:37;;;;;;;5.97;2.20;;;;;;;;;;5069220;28;20025;-58
2021/09/13 03:04:03;;;;;;;5.20;1.93;;;;;;;;;;5073313;28;20105;-58
2021/09/13 03:06:30;;;;;;;7.73;1.80;;;;;;;;;;5073472;28;20022;-58
2021/09/13 03:08:57;;;;;;;3.00;1.27;;;;;;;;;;5073288;28;20094;-58
2021/09/13 03:11:24;;;;;;;2.77;1.23;;;;;;;;;;5073323;28;20039;-58
2021/09/13 03:13:50;;;;;;;2.50;1.40;;;;;;;;;;5071101;28;20082;-58
2021/09/13 03:16:17;;;;;;;3.30;1.77;;;;;;;;;;5067397;28;20047;-58
2021/09/13 03:18:44;;;;;;;5.67;1.63;;;;;;;;;;5068065;28;20033;-58
2021/09/13 03:21:11;;;;;;;2.53;1.40;;;;;;;;;;5067662;28;20024;-58
2021/09/13 03:23:37;;;;;;;2.03;1.17;;;;;;;;;;5068328;28;20032;-59
2021/09/13 03:26:04;;;;;;;4.90;1.37;;;;;;;;;;5072929;28;20740;-58
2021/09/13 03:28:32;;;;;;;3.50;1.93;;;;;;;;;;5072249;28;20032;-58
2021/09/13 03:30:59;;;;;;;3.67;1.53;;;;;;;;;;5072279;28;20028;-58
2021/09/13 03:33:26;;;;;;;5.33;1.20;;;;;;;;;;5072461;28;20028;-58
2021/09/13 03:35:52;;;;;;;4.50;1.60;;;;;;;;;;5071545;28;20082;-58
2021/09/13 03:38:19;;;;;;;4.60;1.83;;;;;;;;;;5067251;28;20440;-58
2021/09/13 03:40:46;;;;;;;7.80;1.47;;;;;;;;;;5067362;28;20566;-58
2021/09/13 03:43:13;;;;;;;2.50;1.10;;;;;;;;;;5067590;28;20067;-58
2021/09/13 03:45:41;;;;;;;2.33;1.20;;;;;;;;;;5067748;28;20043;-58
2021/09/13 03:48:08;;;;;;;2.00;1.10;;;;;;;;;;5072069;28;20111;-58
2021/09/13 03:50:35;;;;;;;2.07;1.23;;;;;;;;;;5072582;28;20035;-58
2021/09/13 03:53:01;;;;;;;3.30;1.20;;;;;;;;;;5072262;28;20115;-58
2021/09/13 03:55:28;;;;;;;3.13;1.37;;;;;;;;;;5072438;28;20021;-58
2021/09/13 03:57:55;;;;;;;2.43;1.47;;;;;;;;;;5071464;28;20020;-58
2021/09/13 04:00:22;;;;;;;3.93;1.50;;;;;;;;;;5067142;28;20020;-58
2021/09/13 04:02:49;;;;;;;3.57;1.53;;;;;;;;;;5067264;28;20036;-58
2021/09/13 04:05:26;;;;;;;3.37;1.50;;;;;;;;;;5066808;28;20027;-58
2021/09/13 04:13:05;;;;;;;1.97;1.03;;;;;;;;;;5052150;28;20039;-59
2021/09/13 04:15:32;;;;;;;3.40;1.30;;;;;;;;;;5051693;28;20032;-59
2021/09/13 04:17:59;;;;;;;3.50;1.17;;;;;;;;;;5052218;28;20071;-59
2021/09/13 04:20:25;;;;;;;5.33;1.17;;;;;;;;;;5050952;28;20028;-58
2021/09/13 04:22:52;;;;;;;2.73;1.13;;;;;;;;;;5065533;28;20051;-57
2021/09/13 04:25:19;;;;;;;2.13;1.20;;;;;;;;;;5067069;28;20505;-58
2021/09/13 04:27:46;;;;;;;6.53;1.53;;;;;;;;;;5066851;28;20537;-58
2021/09/13 04:30:12;;;;;;;3.63;1.20;;;;;;;;;;5067223;28;20104;-58
2021/09/13 04:32:39;;;;;;;2.13;1.00;;;;;;;;;;5071484;28;20376;-59
2021/09/13 04:35:06;;;;;;;3.80;1.33;;;;;;;;;;5072218;28;20482;-59
2021/09/13 04:37:33;;;;;;;2.03;1.13;;;;;;;;;;5072090;28;20071;-58
2021/09/13 04:39:59;;;;;;;5.63;1.60;;;;;;;;;;5072145;28;20024;-59
2021/09/13 04:42:26;;;;;;;3.03;1.20;;;;;;;;;;5075082;28;20013;-58
2021/09/13 04:44:53;;;;;;;2.70;1.43;;;;;;;;;;5070652;28;20024;-58
2021/09/13 04:47:20;;;;;;;2.70;1.20;;;;;;;;;;5070272;28;20035;-58
2021/09/13 04:49:47;;;;;;;1.93;1.10;;;;;;;;;;5070708;28;20401;-59
2021/09/13 04:52:17;;;;;;;2.60;1.20;;;;;;;;;;5070378;28;20032;-59
2021/09/13 04:54:44;;;;;;;1.80;0.83;;;;;;;;;;5059970;28;20033;-59
2021/09/13 04:57:11;;;;;;;2.77;1.10;;;;;;;;;;5066896;28;20018;-59
2021/09/13 04:59:38;;;;;;;2.63;1.00;;;;;;;;;;5060409;28;20020;-59
2021/09/13 05:02:04;;;;;;;4.87;1.20;;;;;;;;;;5075347;28;20025;-59
2021/09/13 05:04:31;;;;;;;4.07;1.00;;;;;;;;;;5074689;28;20031;-59
2021/09/13 05:06:58;;;;;;;2.47;1.13;;;;;;;;;;5070129;28;20085;-59
2021/09/13 05:09:26;;;;;;;3.10;1.37;;;;;;;;;;5070395;28;20040;-60
2021/09/13 05:11:53;;;;;;;2.73;1.10;;;;;;;;;;5070172;28;20025;-59
2021/09/13 05:14:20;;;;;;;3.23;0.70;;;;;;;;;;5069980;28;20024;-59
2021/09/13 05:16:46;;;;;;;3.10;1.10;;;;;;;;;;5075414;28;20025;-60
2021/09/13 05:19:14;;;;;;;2.50;1.00;;;;;;;;;;5075212;28;20463;-59
2021/09/13 05:21:41;;;;;;;4.77;0.70;;;;;;;;;;5075269;28;20494;-59
2021/09/13 05:24:08;;;;;;;2.97;1.10;;;;;;;;;;5075301;28;20021;-59
2021/09/13 05:26:34;;;;;;;6.30;1.20;;;;;;;;;;5074573;28;20020;-60
2021/09/13 05:29:01;;;;;;;6.00;1.80;;;;;;;;;;5069835;28;20099;-61
2021/09/13 05:31:28;;;;;;;3.50;1.23;;;;;;;;;;5069678;28;20082;-60
2021/09/13 05:33:55;;;;;;;2.43;1.47;;;;;;;;;;5069471;28;20025;-61
2021/09/13 05:36:22;;;;;;;3.50;1.80;;;;;;;;;;5069668;28;20027;-60
2021/09/13 05:38:48;;;;;;;4.00;2.00;;;;;;;;;;5074375;28;20032;-60
2021/09/13 05:41:15;;;;;;;6.13;1.60;;;;;;;;;;5075055;28;20463;-60
2021/09/13 05:43:42;;;;;;;4.43;1.70;;;;;;;;;;5074888;28;20052;-61
2021/09/13 05:46:09;;;;;;;3.00;1.17;;;;;;;;;;5075167;28;20020;-60
2021/09/13 05:48:36;;;;;;;3.50;1.30;;;;;;;;;;5074309;28;20108;-60
2021/09/13 05:51:03;;;;;;;1.00;0.60;;;;;;;;;;5069438;28;20024;-60
2021/09/13 05:53:29;;;;;;;2.43;0.63;;;;;;;;;;5068894;28;20028;-59
2021/09/13 05:55:56;;;;;;;2.90;0.80;;;;;;;;;;5069333;28;20054;-59
2021/09/13 05:58:23;;;;;;;1.90;0.97;;;;;;;;;;5069318;28;20032;-59
2021/09/13 06:00:50;;;;;;;1.27;0.73;;;;;;;;;;5073807;28;20031;-59
2021/09/13 06:03:16;;;;;;;1.93;0.70;;;;;;;;;;5074583;28;20024;-59
2021/09/13 06:05:43;;;;;;;2.43;0.60;;;;;;;;;;5074310;28;20020;-59
2021/09/13 06:08:10;;;;;;;0.83;0.43;;;;;;;;;;5074374;28;20024;-59
2021/09/13 06:10:37;;;;;;;2.40;0.37;;;;;;;;;;5074502;28;20028;-59
2021/09/13 06:13:05;;;;;;;1.37;0.37;;;;;;;;;;5068699;28;20024;-59
2021/09/13 06:15:32;;;;;;;0.87;0.30;;;;;;;;;;5069204;28;20437;-59
2021/09/13 06:17:59;;;;;;;0.50;0.17;;;;;;;;;;5069142;28;20063;-59
2021/09/13 06:20:26;;;;;;;0.70;0.40;;;;;;;;;;5068969;28;20146;-60
2021/09/13 06:22:53;;;;;;;0.50;0.20;;;;;;;;;;5073195;28;20028;-59
2021/09/13 06:25:20;;;;;;;0.37;0.23;;;;;;;;;;5073746;28;20123;-59
2021/09/13 06:27:47;;;;;;;1.13;0.23;;;;;;;;;;5074182;28;20024;-59
2021/09/13 06:30:14;;;;;;;0.10;0.10;;;;;;;;;;5073997;28;20111;-59
2021/09/13 06:32:41;;;;;;;0.37;0.10;;;;;;;;;;5074084;28;20024;-58
2021/09/13 06:35:07;;;;;;;0.87;0.03;;;;;;;;;;5069467;28;20086;-59
2021/09/13 06:37:34;;;;;;;0.10;0.00;;;;;;;;;;5067963;28;20547;-58
2021/09/13 06:40:01;;;;;;;0.10;0.00;;;;;;;;;;5068734;28;20028;-59
2021/09/13 06:42:30;;;;;;;0.23;0.00;;;;;;;;;;5068587;28;20025;-58
2021/09/13 06:44:58;;;;;;;1.80;0.10;;;;;;;;;;5072397;28;20024;-58
2021/09/13 06:47:44;;;;;;;0.00;0.00;;;;;;;;;;5073914;28;20050;-58
2021/09/13 06:50:16;;;;;;;0.40;0.10;;;;;;;;;;5073670;28;20076;-58
2021/09/13 06:52:43;;;;;;;0.00;0.00;;;;;;;;;;5073555;28;20024;-58
2021/09/13 06:55:10;;;;;;;0.20;0.00;;;;;;;;;;5073410;28;20029;-58
2021/09/13 06:57:38;;;;;;;0.20;0.10;;;;;;;;;;5068242;28;20024;-59
2021/09/13 07:00:06;;;;;;;1.57;0.10;;;;;;;;;;5068300;28;20492;-58
2021/09/13 07:02:32;;;;;;;0.00;0.00;;;;;;;;;;5067413;28;20017;-58
2021/09/13 07:05:00;;;;;;;0.40;0.20;;;;;;;;;;5068214;28;20024;-58
2021/09/13 07:07:27;;;;;;;0.57;0.20;;;;;;;;;;5072933;28;20025;-58
2021/09/13 07:09:53;;;;;;;1.83;0.17;;;;;;;;;;5073095;28;20036;-58
2021/09/13 07:12:21;;;;;;;1.37;0.20;;;;;;;;;;5073362;28;20068;-58
2021/09/13 07:14:48;;;;;;;0.80;0.30;;;;;;;;;;5072739;28;20047;-58
2021/09/13 07:17:15;;;;;;;0.10;0.00;;;;;;;;;;5072655;28;20020;-59
2021/09/13 07:19:42;;;;;;;1.03;0.13;;;;;;;;;;5067546;28;20430;-59
2021/09/13 07:22:09;;;;;;;0.43;0.20;;;;;;;;;;5067784;28;20024;-59
2021/09/13 07:24:35;;;;;;;0.00;0.00;;;;;;;;;;5067825;28;20025;-58
2021/09/13 07:27:02;;;;;;;0.17;0.10;;;;;;;;;;5067278;28;20036;-58
2021/09/13 07:29:29;;;;;;;1.57;0.10;;;;;;;;;;5072107;28;20040;-58
2021/09/13 07:31:58;;;;;;;0.20;0.00;;;;;;;;;;5072751;28;20052;-58
2021/09/13 07:34:25;;;;;;;0.20;0.07;;;;;;;;;;5072678;28;20085;-58
2021/09/13 07:36:51;;;;;;;0.10;0.00;;;;;;;;;;5072575;28;20025;-58
2021/09/13 07:39:18;;;;;;;0.57;0.00;;;;;;;;;;5072337;28;20029;-58
2021/09/13 07:41:45;;;;;;;2.27;0.10;;;;;;;;;;5067805;28;20059;-59
2021/09/13 07:44:12;;;;;;;0.63;0.10;;;;;;;;;;5067572;28;20028;-58
2021/09/13 07:46:38;;;;;;;0.43;0.00;;;;;;;;;;5067365;28;20016;-59
2021/09/13 07:49:05;;;;;;;0.07;0.00;;;;;;;;;;5066824;28;20055;-58
2021/09/13 07:51:32;;;;;;;0.00;0.00;;;;;;;;;;5071428;28;20040;-58
2021/09/13 07:53:59;;;;;;;1.50;0.10;;;;;;;;;;5072347;28;20020;-58
2021/09/13 07:56:25;;;;;;;0.10;0.03;;;;;;;;;;5072535;28;20099;-58
2021/09/13 07:58:52;;;;;;;0.57;0.00;;;;;;;;;;5072475;28;20032;-59
2021/09/13 08:01:19;;;;;;;0.63;0.07;;;;;;;;;;5072292;28;20036;-58
2021/09/13 08:03:46;;;;;;;1.00;0.10;;;;;;;;;;5067378;28;20050;-59
2021/09/13 08:06:13;;;;;;;0.30;0.30;;;;;;;;;;5067125;28;20039;-59
2021/09/13 08:08:39;;;;;;;0.47;0.20;;;;;;;;;;5067089;28;20142;-59
2021/09/13 08:11:06;;;;;;;1.83;0.10;;;;;;;;;;5067006;28;20028;-59
2021/09/13 08:13:34;;;;;;;0.20;0.10;;;;;;;;;;5070602;28;20025;-58
2021/09/13 08:16:01;;;;;;;0.83;0.20;;;;;;;;;;5071248;28;20087;-59
2021/09/13 08:18:28;;;;;;;0.67;0.30;;;;;;;;;;5072030;28;20150;-58
2021/09/13 08:20:55;;;;;;;1.37;0.30;;;;;;;;;;5072208;28;20032;-59
2021/09/13 08:23:21;;;;;;;0.60;0.30;;;;;;;;;;5072160;28;20100;-59
2021/09/13 08:25:48;;;;;;;0.40;0.20;;;;;;;;;;5067810;28;20032;-59
2021/09/13 08:28:19;;;;;;;3.83;0.50;;;;;;;;;;5066627;28;20036;-59
2021/09/13 08:30:47;;;;;;;1.00;0.70;;;;;;;;;;5066950;28;20039;-59
2021/09/13 08:33:13;;;;;;;1.30;0.57;;;;;;;;;;5066601;28;20021;-58
2021/09/13 08:35:41;;;;;;;1.23;0.70;;;;;;;;;;5070366;28;20033;-58
2021/09/13 08:38:08;;;;;;;2.73;0.40;;;;;;;;;;5071583;28;20021;-59
2021/09/13 08:40:34;;;;;;;0.10;0.10;;;;;;;;;;5071802;28;20060;-58
2021/09/13 08:43:02;;;;;;;0.17;0.10;;;;;;;;;;5071717;28;20028;-58
2021/09/13 08:45:40;;;;;;;0.10;0.00;;;;;;;;;;5071756;28;20430;-58
2021/09/13 08:48:14;;;;;;;1.57;0.20;;;;;;;;;;5067561;28;20024;-59
2021/09/13 08:53:18;;;;;;;0.87;0.20;;;;;;;;;;5066391;28;20044;-59
2021/09/13 08:55:45;;;;;;;1.70;0.10;;;;;;;;;;5066505;28;20036;-59
2021/09/13 08:58:17;;;;;;;0.27;0.10;;;;;;;;;;5070456;28;20471;-58
2021/09/13 09:00:44;;;;;;;0.23;0.10;;;;;;;;;;5071921;28;20102;-58
2021/09/13 09:03:11;;;;;;;0.63;0.23;;;;;;;;;;5071724;28;20024;-59
2021/09/13 09:05:40;;;;;;;0.60;0.37;;;;;;;;;;5071838;28;20036;-58
2021/09/13 09:08:09;;;;;;;2.53;0.43;;;;;;;;;;5071011;28;20051;-58
2021/09/13 09:10:36;;;;;;;0.00;0.00;;;;;;;;;;5066273;28;20063;-58
2021/09/13 09:13:13;;;;;;;0.00;0.00;;;;;;;;;;5066465;28;20476;-59
2021/09/13 09:15:59;;;;;;;0.23;0.00;;;;;;;;;;5066616;28;20037;-58
2021/09/13 09:18:38;;;;;;;0.07;0.00;;;;;;;;;;5066658;28;20033;-59
2021/09/13 09:21:05;;;;;;;0.17;0.00;;;;;;;;;;5071470;28;20544;-59
2021/09/13 09:23:34;;;;;;;2.87;0.03;;;;;;;;;;5071726;28;20020;-59
2021/09/13 09:26:13;;;;;;;0.10;0.00;;;;;;;;;;5071601;28;20052;-59
2021/09/13 09:28:40;;;;;;;0.30;0.00;;;;;;;;;;5074052;28;20476;-59
2021/09/13 09:31:06;;;;;;;0.00;0.00;;;;;;;;;;5072976;28;20020;-58
2021/09/13 09:33:33;;;;;;;1.07;0.00;;;;;;;;;;5069809;28;20040;-59
2021/09/13 09:36:00;;;;;;;0.73;0.00;;;;;;;;;;5069830;28;20036;-59
2021/09/13 09:38:28;;;;;;;0.00;0.00;;;;;;;;;;5069677;28;20085;-60
2021/09/13 09:41:01;;;;;;;0.37;0.00;;;;;;;;;;5070444;28;20410;-59
2021/09/13 09:43:32;;;;;;;1.20;0.10;;;;;;;;;;5075032;28;20021;-59
2021/09/13 09:46:00;;;;;;;0.73;0.10;;;;;;;;;;5074905;28;20391;-59
2021/09/13 09:48:32;;;;;;;0.00;0.00;;;;;;;;;;5074685;28;20040;-59
2021/09/13 09:50:59;;;;;;;0.00;0.00;;;;;;;;;;5074759;28;20464;-60
2021/09/13 09:53:29;;;;;;;0.13;0.00;;;;;;;;;;5072320;28;20399;-59
2021/09/13 09:56:11;;;;;;;0.20;0.00;;;;;;;;;;5069462;28;20086;-59
2021/09/13 09:58:57;;;;;;;0.00;0.00;;;;;;;;;;5069389;28;20454;-60
2021/09/13 10:01:34;;;;;;;2.17;0.00;;;;;;;;;;5069502;28;20095;-60
2021/09/13 10:04:20;;;;;;;0.00;0.00;;;;;;;;;;5071423;28;20028;-59
2021/09/13 10:06:48;;;;;;;0.43;0.07;;;;;;;;;;5074671;28;20421;-59
2021/09/13 10:09:15;;;;;;;0.53;0.07;;;;;;;;;;5074629;28;20046;-59
2021/09/13 10:11:43;;;;;;;0.00;0.00;;;;;;;;;;5074429;28;20023;-60
2021/09/13 10:14:10;;;;;;;0.83;0.07;;;;;;;;;;5074416;28;20066;-59
2021/09/13 10:16:38;;;;;;;0.10;0.10;;;;;;;;;;5069837;28;20403;-60
2021/09/13 10:19:06;;;;;;;0.20;0.00;;;;;;;;;;5069273;28;20017;-59
2021/09/13 10:21:33;;;;;;;0.10;0.03;;;;;;;;;;5068982;28;20399;-59
2021/09/13 10:24:01;;;;;;;0.40;0.10;;;;;;;;;;5069166;28;20021;-59
2021/09/13 10:26:28;;;;;;;0.00;0.00;;;;;;;;;;5072755;28;20028;-59
2021/09/13 10:29:04;;;;;;;0.23;0.00;;;;;;;;;;5073385;28;20043;-59
2021/09/13 10:31:44;;;;;;;0.00;0.00;;;;;;;;;;5074229;28;20029;-59
2021/09/13 10:34:18;;;;;;;0.00;0.00;;;;;;;;;;5073970;28;20395;-59
2021/09/13 10:37:03;;;;;;;0.03;0.03;;;;;;;;;;5073749;28;20074;-59
2021/09/13 10:39:50;;;;;;;0.20;0.00;;;;;;;;;;5068294;28;20104;-60
2021/09/13 10:42:34;;;;;;;0.00;0.00;;;;;;;;;;5068353;28;20074;-59
2021/09/13 10:45:09;;;;;;;0.63;0.08;;;;;;;;;;5068333;28;20073;-59
2021/09/13 10:47:37;;;;;;;0.10;0.08;;;;;;;;;;5069926;28;20470;-59
2021/09/13 10:50:21;;;;;;;0.93;0.00;;;;;;;;;;5073662;28;20352;-59
2021/09/13 10:52:48;;;;;;;0.10;0.00;;;;;;;;;;5073300;28;20046;-59
2021/09/13 10:55:26;;;;;;;0.00;0.00;;;;;;;;;;5073444;28;20479;-59
2021/09/13 10:58:03;;;;;;;0.30;0.10;;;;;;;;;;5073475;28;20017;-59
2021/09/13 11:00:42;;;;;;;1.20;0.10;;;;;;;;;;5070216;28;20081;-59
2021/09/13 11:06:07;;;;;;;0.43;0.10;;;;;;;;;;5068362;28;20040;-59
2021/09/13 11:08:47;;;;;;;0.13;0.00;;;;;;;;;;5068190;28;20047;-59
2021/09/13 11:11:18;;;;;;;0.00;0.00;;;;;;;;;;5052651;28;20043;-59
2021/09/13 11:13:46;;;;;;;0.00;0.00;;;;;;;;;;5054556;28;20108;-59
2021/09/13 11:16:19;;;;;;;0.23;0.13;;;;;;;;;;5073207;28;20017;-59
2021/09/13 11:18:47;;;;;;;1.40;0.10;;;;;;;;;;5073085;28;20017;-59
2021/09/13 11:21:27;;;;;;;0.73;0.10;;;;;;;;;;5072574;28;20017;-59
2021/09/13 11:23:58;;;;;;;2.00;0.50;;;;;;;;;;5067516;28;20452;-60
2021/09/13 11:26:30;;;;;;;0.63;0.00;;;;;;;;;;5067775;28;20030;-59
2021/09/13 11:29:10;;;;;;;0.00;0.00;;;;;;;;;;5067201;28;20715;-59
2021/09/13 11:31:41;;;;;;;0.67;0.60;;;;;;;;;;5068198;28;20032;-59
2021/09/13 11:34:11;;;;;;;0.10;0.00;;;;;;;;;;5072858;28;20024;-59
2021/09/13 11:36:38;;;;;;;0.03;0.00;;;;;;;;;;5072666;28;20028;-59
2021/09/13 11:39:06;;;;;;;0.00;0.00;;;;;;;;;;5072362;28;20037;-59
2021/09/13 11:41:34;;;;;;;0.00;0.00;;;;;;;;;;5072205;28;20450;-60
2021/09/13 11:44:08;;;;;;;0.10;0.00;;;;;;;;;;5071331;28;20459;-59
2021/09/13 11:46:54;;;;;;;1.43;0.20;;;;;;;;;;5067354;28;20020;-59
2021/09/13 11:49:22;;;;;;;0.97;0.50;;;;;;;;;;5067260;28;20029;-59
2021/09/13 11:52:18;;;;;;;0.43;0.17;;;;;;;;;;5066048;28;20028;-59
2021/09/13 11:54:49;;;;;;;0.43;0.10;;;;;;;;;;5049020;28;20090;-60
2021/09/13 11:57:25;;;;;;;0.00;0.00;;;;;;;;;;5072678;28;20031;-59
2021/09/13 11:59:53;;;;;;;0.10;0.10;;;;;;;;;;5072738;28;20029;-59
2021/09/13 12:02:20;;;;;;;0.67;0.07;;;;;;;;;;5072415;28;20021;-60
2021/09/13 12:04:47;;;;;;;0.20;0.10;;;;;;;;;;5072091;28;20033;-59
2021/09/13 12:07:14;;;;;;;0.00;0.00;;;;;;;;;;5068919;28;20031;-60
2021/09/13 12:09:43;;;;;;;0.37;0.10;;;;;;;;;;5067073;28;20048;-59
2021/09/13 12:12:13;;;;;;;2.77;0.30;;;;;;;;;;5066710;28;20036;-59
2021/09/13 12:14:41;;;;;;;0.30;0.20;;;;;;;;;;5066856;28;20094;-59
2021/09/13 12:17:09;;;;;;;1.33;0.30;;;;;;;;;;5069888;28;20028;-60
2021/09/13 12:19:37;;;;;;;2.20;0.27;;;;;;;;;;5072388;28;20131;-59
2021/09/13 12:22:07;;;;;;;0.70;0.20;;;;;;;;;;5072059;28;20139;-60
2021/09/13 12:24:34;;;;;;;0.37;0.13;;;;;;;;;;5071922;28;20033;-59
2021/09/13 12:27:14;;;;;;;0.20;0.10;;;;;;;;;;5071965;28;20055;-59
2021/09/13 12:29:58;;;;;;;3.30;0.33;;;;;;;;;;5067922;28;20044;-59
2021/09/13 12:32:26;;;;;;;0.83;0.40;;;;;;;;;;5067278;28;20017;-60
2021/09/13 12:34:56;;;;;;;0.70;0.30;;;;;;;;;;5066429;28;20097;-60
2021/09/13 12:37:30;;;;;;;0.50;0.33;;;;;;;;;;5067242;28;20044;-60
2021/09/13 12:40:05;;;;;;;0.28;0.20;;;;;;;;;;5071637;28;20379;-59
2021/09/13 12:42:31;;;;;;;0.68;0.20;;;;;;;;;;5072409;28;20013;-59
2021/09/13 12:44:59;;;;;;;0.23;0.10;;;;;;;;;;5071588;28;20025;-60
2021/09/13 12:47:26;;;;;;;0.83;0.10;;;;;;;;;;5072124;28;20056;-59
2021/09/13 12:49:53;;;;;;;0.20;0.10;;;;;;;;;;5072004;28;20059;-59
2021/09/13 12:52:21;;;;;;;3.87;0.40;;;;;;;;;;5067079;28;20078;-60
2021/09/13 12:54:49;;;;;;;5.43;0.67;;;;;;;;;;5067302;28;20031;-59
2021/09/13 12:57:33;;;;;;;1.17;0.67;;;;;;;;;;5066563;28;20016;-59
2021/09/13 13:00:10;;;;;;;0.77;0.50;;;;;;;;;;5066883;28;20038;-60
2021/09/13 13:02:37;;;;;;;1.33;0.60;;;;;;;;;;5074606;28;20032;-60
2021/09/13 13:05:04;;;;;;;1.03;0.60;;;;;;;;;;5075930;28;20378;-59
2021/09/13 13:07:31;;;;;;;0.53;0.40;;;;;;;;;;5075911;28;20020;-59
2021/09/13 13:09:58;;;;;;;0.27;0.27;;;;;;;;;;5075145;28;20146;-60
2021/09/13 13:12:25;;;;;;;1.30;0.40;;;;;;;;;;5075025;28;20418;-59
2021/09/13 13:14:52;;;;;;;3.33;0.80;;;;;;;;;;5070616;28;20028;-59
2021/09/13 13:17:18;;;;;;;2.67;0.40;;;;;;;;;;5070397;28;20020;-59
2021/09/13 13:19:45;;;;;;;0.93;0.10;;;;;;;;;;5070681;28;20024;-59
2021/09/13 13:22:13;;;;;;;2.83;0.30;;;;;;;;;;5070004;28;20052;-59
2021/09/13 13:24:40;;;;;;;0.60;0.40;;;;;;;;;;5075406;28;20035;-60
2021/09/13 13:27:07;;;;;;;0.30;0.20;;;;;;;;;;5074732;28;20027;-59
2021/09/13 13:29:33;;;;;;;0.43;0.20;;;;;;;;;;5075322;28;20033;-59
2021/09/13 13:32:00;;;;;;;0.63;0.20;;;;;;;;;;5075490;28;20035;-60
2021/09/13 13:34:29;;;;;;;0.33;0.20;;;;;;;;;;5074545;28;20088;-59
2021/09/13 13:36:56;;;;;;;0.10;0.00;;;;;;;;;;5069911;28;20016;-60
2021/09/13 13:39:23;;;;;;;0.37;0.10;;;;;;;;;;5070188;28;20094;-59
2021/09/13 13:41:50;;;;;;;0.40;0.10;;;;;;;;;;5069647;28;20028;-60
2021/09/13 13:44:16;;;;;;;1.80;0.63;;;;;;;;;;5070047;28;20037;-59
2021/09/13 13:46:43;;;;;;;0.00;0.00;;;;;;;;;;5074730;28;20032;-59
2021/09/13 13:49:10;;;;;;;1.80;0.00;;;;;;;;;;5074921;28;20093;-59
2021/09/13 13:51:37;;;;;;;0.73;0.20;;;;;;;;;;5074940;28;20020;-59
2021/09/13 13:54:03;;;;;;;0.77;0.10;;;;;;;;;;5074995;28;20021;-60
2021/09/13 13:56:32;;;;;;;0.40;0.10;;;;;;;;;;5074119;28;20017;-59
2021/09/13 13:58:58;;;;;;;0.10;0.00;;;;;;;;;;5069798;28;20032;-59
2021/09/13 14:01:25;;;;;;;0.33;0.20;;;;;;;;;;5069804;28;20108;-60
2021/09/13 14:03:52;;;;;;;1.60;0.20;;;;;;;;;;5069473;28;20025;-61
2021/09/13 14:06:19;;;;;;;0.67;0.30;;;;;;;;;;5069639;28;20024;-60
2021/09/13 14:08:45;;;;;;;0.10;0.10;;;;;;;;;;5074176;28;20068;-59
2021/09/13 14:11:12;;;;;;;0.20;0.10;;;;;;;;;;5074902;28;20021;-59
2021/09/13 14:13:39;;;;;;;0.37;0.17;;;;;;;;;;5073432;28;20110;-59
2021/09/13 14:16:06;;;;;;;0.57;0.10;;;;;;;;;;5074633;28;20079;-59
2021/09/13 14:18:33;;;;;;;0.20;0.20;;;;;;;;;;5074488;28;20026;-59
2021/09/13 14:21:00;;;;;;;0.57;0.20;;;;;;;;;;5069319;28;20028;-60
2021/09/13 14:23:26;;;;;;;0.33;0.10;;;;;;;;;;5069467;28;20020;-60
2021/09/13 14:25:53;;;;;;;0.97;0.20;;;;;;;;;;5068924;28;20038;-60
2021/09/13 14:28:20;;;;;;;0.20;0.10;;;;;;;;;;5068515;28;20443;-59
2021/09/13 14:30:47;;;;;;;2.53;0.80;;;;;;;;;;5073962;28;20030;-59
2021/09/13 14:33:13;;;;;;;0.20;0.20;;;;;;;;;;5074593;28;20021;-59
2021/09/13 14:35:40;;;;;;;0.30;0.10;;;;;;;;;;5074138;28;20052;-59
2021/09/13 14:38:07;;;;;;;0.30;0.30;;;;;;;;;;5073820;28;20025;-59
2021/09/13 14:40:37;;;;;;;0.63;0.20;;;;;;;;;;5074262;28;20103;-59
2021/09/13 14:43:04;;;;;;;0.43;0.17;;;;;;;;;;5068042;28;20117;-60
2021/09/13 14:45:34;;;;;;;1.53;0.33;;;;;;;;;;5068879;28;20140;-60
2021/09/13 14:48:02;;;;;;;0.30;0.10;;;;;;;;;;5068912;28;20078;-60
2021/09/13 14:50:29;;;;;;;0.30;0.10;;;;;;;;;;5068713;28;20358;-60
2021/09/13 14:52:56;;;;;;;0.60;0.10;;;;;;;;;;5072845;28;20028;-60
2021/09/13 14:55:23;;;;;;;0.50;0.10;;;;;;;;;;5073543;28;20021;-60
2021/09/13 14:57:50;;;;;;;0.47;0.10;;;;;;;;;;5073564;28;20090;-60
2021/09/13 15:00:17;;;;;;;0.10;0.10;;;;;;;;;;5073492;28;20063;-60